createdAt,value
2023-04-25T00:00:59.437Z,100467.78
2023-04-25T00:03:27.394Z,100468.16
2023-04-25T00:05:57.837Z,100469.84
2023-04-25T00:08:26.175Z,100466.25
2023-04-25T00:10:53.636Z,100471.91
2023-04-25T00:13:22.614Z,100467.56
2023-04-25T00:15:50.136Z,100465.28
2023-04-25T00:18:18.926Z,100461.06
2023-04-25T00:20:47.576Z,100465.00
2023-04-25T00:23:19.171Z,100464.72
2023-04-25T00:25:50.762Z,100470.00
2023-04-25T00:28:18.724Z,100465.56
2023-04-25T00:30:46.397Z,100462.13
2023-04-25T00:33:13.874Z,100463.56
2023-04-25T00:35:41.903Z,100466.94
2023-04-25T00:38:09.486Z,100475.06
2023-04-25T00:40:37.131Z,100469.72
2023-04-25T00:43:05.412Z,100472.72
2023-04-25T00:45:38.933Z,100468.47
2023-04-25T00:48:07.206Z,100464.59
2023-04-25T00:50:37.005Z,100461.94
2023-04-25T00:53:04.727Z,100457.25
2023-04-25T00:55:32.563Z,100457.09
2023-04-25T00:58:00.126Z,100462.88
2023-04-25T01:00:27.717Z,100455.78
2023-04-25T01:02:55.476Z,100456.16
2023-04-25T01:05:23.303Z,100461.69
2023-04-25T01:07:51.652Z,100455.75
2023-04-25T01:10:19.247Z,100454.22
2023-04-25T01:12:48.304Z,100449.88
2023-04-25T01:15:15.986Z,100450.47
2023-04-25T01:17:45.299Z,100456.50
2023-04-25T01:20:15.061Z,100451.56
2023-04-25T01:22:44.368Z,100455.31
2023-04-25T01:25:12.334Z,100462.25
2023-04-25T01:27:41.539Z,100459.84
2023-04-25T01:30:10.143Z,100460.69
2023-04-25T01:32:39.784Z,100457.97
2023-04-25T01:35:10.485Z,100457.09
2023-04-25T01:37:42.471Z,100456.44
2023-04-25T01:40:12.881Z,100454.56
2023-04-25T01:42:43.308Z,100452.00
2023-04-25T01:45:12.381Z,100454.75
2023-04-25T01:47:41.198Z,100445.88
2023-04-25T01:50:09.767Z,100447.94
2023-04-25T01:52:38.833Z,100449.63
2023-04-25T01:55:06.948Z,100449.47
2023-04-25T01:57:36.942Z,100440.09
2023-04-25T02:00:10.069Z,100438.31
2023-04-25T02:02:40.859Z,100439.25
2023-04-25T02:05:21.866Z,100444.53
2023-04-25T02:07:49.852Z,100440.25
2023-04-25T02:10:17.418Z,100441.19
2023-04-25T02:12:55.898Z,100436.34
2023-04-25T02:15:58.921Z,100433.31
2023-04-25T02:18:27.452Z,100430.56
2023-04-25T02:20:55.459Z,100437.19
2023-04-25T02:23:23.638Z,100434.38
2023-04-25T02:25:52.045Z,100427.63
2023-04-25T02:28:19.624Z,100424.84
2023-04-25T02:30:47.159Z,100434.56
2023-04-25T02:33:14.789Z,100425.28
2023-04-25T02:35:42.255Z,100424.88
2023-04-25T02:38:09.679Z,100421.09
2023-04-25T02:40:37.285Z,100429.88
2023-04-25T02:43:04.932Z,100425.63
2023-04-25T02:45:33.099Z,100430.47
2023-04-25T02:48:00.605Z,100433.63
2023-04-25T02:50:28.277Z,100423.59
2023-04-25T02:52:55.955Z,100432.25
2023-04-25T02:55:28.775Z,100432.44
2023-04-25T02:57:57.679Z,100428.25
2023-04-25T03:00:37.247Z,100437.84
2023-04-25T03:03:05.048Z,100429.94
2023-04-25T03:05:32.809Z,100434.06
2023-04-25T03:08:00.556Z,100435.19
2023-04-25T03:10:29.390Z,100441.44
2023-04-25T03:13:00.778Z,100443.88
2023-04-25T03:15:28.368Z,100444.09
2023-04-25T03:17:55.916Z,100442.47
2023-04-25T03:20:24.785Z,100449.56
2023-04-25T03:22:52.341Z,100451.94
2023-04-25T03:25:20.031Z,100449.28
2023-04-25T03:27:47.759Z,100461.81
2023-04-25T03:30:15.500Z,100456.78
2023-04-25T03:32:45.105Z,100450.22
2023-04-25T03:35:16.913Z,100449.81
2023-04-25T03:37:47.561Z,100447.84
2023-04-25T03:40:20.612Z,100446.66
2023-04-25T03:43:06.562Z,100445.03
2023-04-25T03:45:35.258Z,100437.47
2023-04-25T03:48:02.935Z,100441.28
2023-04-25T03:50:31.689Z,100440.94
2023-04-25T03:52:59.189Z,100435.97
2023-04-25T03:55:29.607Z,100439.41
2023-04-25T03:57:59.399Z,100431.00
2023-04-25T04:00:26.973Z,100431.06
2023-04-25T04:02:54.744Z,100428.22
2023-04-25T04:05:22.396Z,100422.53
2023-04-25T04:07:55.695Z,100422.44
2023-04-25T04:10:23.898Z,100421.09
2023-04-25T04:12:51.377Z,100422.31
2023-04-25T04:15:19.348Z,100423.44
2023-04-25T04:17:49.504Z,100419.97
2023-04-25T04:20:17.104Z,100427.28
2023-04-25T04:22:44.728Z,100417.22
2023-04-25T04:25:14.887Z,100416.28
2023-04-25T04:28:14.780Z,100408.09
2023-04-25T04:31:18.004Z,100415.56
2023-04-25T04:33:46.692Z,100415.13
2023-04-25T04:36:15.305Z,100411.06
2023-04-25T04:38:43.416Z,100404.66
2023-04-25T04:41:20.665Z,100403.69
2023-04-25T04:43:57.033Z,100398.50
2023-04-25T04:46:33.198Z,100403.22
2023-04-25T04:49:22.219Z,100398.19
2023-04-25T04:52:25.013Z,100397.47
2023-04-25T04:55:23.274Z,100390.63
2023-04-25T04:58:11.024Z,100381.16
2023-04-25T05:00:53.977Z,100386.25
2023-04-25T05:03:54.777Z,100380.97
2023-04-25T05:06:48.620Z,100376.03
2023-04-25T05:09:28.285Z,100372.75
2023-04-25T05:12:18.848Z,100370.03
2023-04-25T05:14:54.742Z,100367.47
2023-04-25T05:17:41.162Z,100364.25
2023-04-25T05:20:20.870Z,100358.50
2023-04-25T05:23:16.513Z,100372.22
2023-04-25T05:26:22.955Z,100363.97
2023-04-25T05:29:06.717Z,100369.06
2023-04-25T05:31:40.369Z,100370.56
2023-04-25T05:34:14.232Z,100371.50
2023-04-25T05:36:50.695Z,100367.84
2023-04-25T05:39:18.589Z,100364.53
2023-04-25T05:42:11.874Z,100374.63
2023-04-25T05:45:01.356Z,100368.91
2023-04-25T05:47:52.052Z,100371.78
2023-04-25T05:50:24.434Z,100361.63
2023-04-25T05:53:24.359Z,100364.78
2023-04-25T05:56:00.897Z,100365.84
2023-04-25T05:58:30.175Z,100360.03
2023-04-25T06:00:59.303Z,100361.88
2023-04-25T06:03:27.211Z,100355.31
2023-04-25T06:05:55.239Z,100356.38
2023-04-25T06:08:23.465Z,100346.44
2023-04-25T06:10:51.053Z,100349.16
2023-04-25T06:13:19.873Z,100347.72
2023-04-25T06:15:47.580Z,100348.31
2023-04-25T06:18:15.219Z,100355.78
2023-04-25T06:20:42.785Z,100349.69
2023-04-25T06:23:11.040Z,100351.06
2023-04-25T06:25:53.216Z,100354.69
2023-04-25T06:28:23.131Z,100352.56
2023-04-25T06:30:50.708Z,100350.63
2023-04-25T06:33:21.315Z,100360.72
2023-04-25T06:35:49.773Z,100348.75
2023-04-25T06:38:20.376Z,100350.47
2023-04-25T06:40:52.375Z,100351.91
2023-04-25T06:43:20.585Z,100347.59
2023-04-25T06:45:48.628Z,100340.59
2023-04-25T06:48:16.781Z,100338.91
2023-04-25T06:50:44.306Z,100342.06
2023-04-25T06:53:13.307Z,100344.09
2023-04-25T06:55:43.289Z,100349.09
2023-04-25T06:58:23.375Z,100344.91
2023-04-25T07:01:23.491Z,100338.34
2023-04-25T07:03:51.490Z,100341.53
2023-04-25T07:06:20.602Z,100338.44
2023-04-25T07:08:48.539Z,100341.34
2023-04-25T07:11:16.689Z,100331.31
2023-04-25T07:13:44.514Z,100342.75
2023-04-25T07:16:12.074Z,100335.75
2023-04-25T07:18:39.630Z,100338.00
2023-04-25T07:21:07.244Z,100333.94
2023-04-25T07:23:36.141Z,100323.09
2023-04-25T07:26:10.003Z,100332.94
2023-04-25T07:28:43.158Z,100337.84
2023-04-25T07:31:10.760Z,100333.56
2023-04-25T07:33:38.218Z,100330.91
2023-04-25T07:36:06.217Z,100327.28
2023-04-25T07:38:34.113Z,100331.88
2023-04-25T07:41:02.128Z,100330.66
2023-04-25T07:43:29.884Z,100335.19
2023-04-25T07:46:00.097Z,100326.75
2023-04-25T07:48:30.672Z,100329.03
2023-04-25T07:50:58.293Z,100321.13
2023-04-25T07:53:25.743Z,100324.13
2023-04-25T07:56:01.304Z,100312.41
2023-04-25T07:58:32.302Z,100312.06
2023-04-25T08:01:02.582Z,100310.03
2023-04-25T08:03:46.602Z,100310.25
2023-04-25T08:06:37.905Z,100314.31
2023-04-25T08:09:11.088Z,100314.81
2023-04-25T08:11:41.227Z,100307.22
2023-04-25T08:14:13.258Z,100304.28
2023-04-25T08:16:43.190Z,100304.56
2023-04-25T08:19:12.073Z,100295.59
2023-04-25T08:21:39.598Z,100300.44
2023-04-25T08:24:12.054Z,100290.47
2023-04-25T08:26:42.291Z,100290.91
2023-04-25T08:29:12.616Z,100282.00
2023-04-25T08:31:42.176Z,100284.44
2023-04-25T08:34:10.853Z,100274.91
2023-04-25T08:36:43.597Z,100274.03
2023-04-25T08:39:29.875Z,100275.38
2023-04-25T08:42:29.075Z,100273.78
2023-04-25T08:44:58.003Z,100269.88
2023-04-25T08:47:31.244Z,100279.56
2023-04-25T08:50:00.841Z,100265.72
2023-04-25T08:52:32.063Z,100271.28
2023-04-25T08:55:02.536Z,100265.16
2023-04-25T08:57:32.612Z,100268.00
2023-04-25T09:00:02.195Z,100264.59
2023-04-25T09:02:30.784Z,100261.53
2023-04-25T09:04:58.698Z,100264.28
2023-04-25T09:07:26.868Z,100272.19
2023-04-25T09:09:55.655Z,100260.66
2023-04-25T09:12:23.909Z,100258.44
2023-04-25T09:15:08.011Z,100262.81
2023-04-25T09:18:00.083Z,100257.47
2023-04-25T09:21:00.737Z,100261.06
2023-04-25T09:23:31.118Z,100257.78
2023-04-25T09:25:58.897Z,100257.06
2023-04-25T09:28:30.133Z,100248.31
2023-04-25T09:30:59.937Z,100246.19
2023-04-25T09:33:36.860Z,100243.72
2023-04-25T09:36:10.333Z,100240.97
2023-04-25T09:39:02.319Z,100233.16
2023-04-25T09:41:33.698Z,100235.56
2023-04-25T09:44:03.644Z,100226.94
2023-04-25T09:46:37.996Z,100228.63
2023-04-25T09:49:09.639Z,100229.75
2023-04-25T09:52:03.399Z,100230.38
2023-04-25T09:54:54.253Z,100221.78
2023-04-25T09:57:30.661Z,100215.50
2023-04-25T10:00:01.479Z,100220.00
2023-04-25T10:02:46.084Z,100218.03
2023-04-25T10:05:25.898Z,100214.66
2023-04-25T10:07:56.441Z,100212.66
2023-04-25T10:10:30.147Z,100220.38
2023-04-25T10:12:59.539Z,100212.06
2023-04-25T10:15:27.340Z,100213.75
2023-04-25T10:17:55.528Z,100207.03
2023-04-25T10:20:23.600Z,100211.06
2023-04-25T10:22:55.219Z,100214.03
2023-04-25T10:25:24.275Z,100201.56
2023-04-25T10:27:55.059Z,100208.97
2023-04-25T10:30:22.569Z,100205.72
2023-04-25T10:32:53.572Z,100200.81
2023-04-25T10:35:29.953Z,100205.97
2023-04-25T10:38:11.006Z,100210.09
2023-04-25T10:40:39.230Z,100204.94
2023-04-25T10:43:44.556Z,100191.00
2023-04-25T10:46:32.318Z,100195.25
2023-04-25T10:49:02.552Z,100200.72
2023-04-25T10:51:51.673Z,100191.94
2023-04-25T10:54:26.192Z,100192.75
2023-04-25T10:56:54.374Z,100186.59
2023-04-25T10:59:26.297Z,100185.03
2023-04-25T11:01:55.993Z,100181.75
2023-04-25T11:04:24.954Z,100184.56
2023-04-25T11:07:08.483Z,100179.81
2023-04-25T11:09:39.984Z,100181.63
2023-04-25T11:12:10.593Z,100188.78
2023-04-25T11:17:06.889Z,100174.97
2023-04-25T11:19:34.543Z,100170.34
2023-04-25T11:22:04.085Z,100167.38
2023-04-25T11:24:32.293Z,100166.56
2023-04-25T11:27:01.112Z,100165.31
2023-04-25T11:29:30.425Z,100168.41
2023-04-25T11:31:59.394Z,100166.28
2023-04-25T11:34:27.570Z,100170.78
2023-04-25T11:36:55.234Z,100167.13
2023-04-25T11:39:22.986Z,100164.91
2023-04-25T11:41:51.475Z,100156.56
2023-04-25T11:44:20.124Z,100159.38
2023-04-25T11:46:47.821Z,100153.31
2023-04-25T11:49:16.413Z,100147.13
2023-04-25T11:51:45.781Z,100152.53
2023-04-25T11:54:14.089Z,100152.53
2023-04-25T11:56:46.323Z,100145.59
2023-04-25T11:59:14.502Z,100144.63
2023-04-25T12:01:48.733Z,100146.03
2023-04-25T12:04:16.567Z,100149.41
2023-04-25T12:06:49.986Z,100135.63
2023-04-25T12:09:22.346Z,100134.25
2023-04-25T12:11:54.478Z,100135.88
2023-04-25T12:14:28.128Z,100135.63
2023-04-25T12:16:58.858Z,100134.19
2023-04-25T12:19:27.566Z,100133.06
2023-04-25T12:21:58.675Z,100131.28
2023-04-25T12:24:28.914Z,100128.16
2023-04-25T12:27:09.299Z,100121.75
2023-04-25T12:29:49.075Z,100120.63
2023-04-25T12:32:18.185Z,100115.53
2023-04-25T12:34:46.181Z,100113.06
2023-04-25T12:37:14.561Z,100113.31
2023-04-25T12:39:42.313Z,100113.25
2023-04-25T12:42:12.932Z,100104.25
2023-04-25T12:44:41.683Z,100104.06
2023-04-25T12:47:09.427Z,100106.22
2023-04-25T12:49:37.101Z,100101.22
2023-04-25T12:52:04.799Z,100105.66
2023-04-25T12:54:32.628Z,100103.78
2023-04-25T12:57:00.308Z,100100.59
2023-04-25T12:59:28.553Z,100096.03
2023-04-25T13:01:56.159Z,100099.47
2023-04-25T13:04:23.766Z,100095.63
2023-04-25T13:06:51.356Z,100095.63
2023-04-25T13:09:18.835Z,100092.34
2023-04-25T13:11:47.101Z,100095.00
2023-04-25T13:14:14.641Z,100092.94
2023-04-25T13:16:42.420Z,100082.88
2023-04-25T13:19:12.499Z,100090.59
2023-04-25T13:21:40.293Z,100088.06
2023-04-25T13:24:08.082Z,100083.78
2023-04-25T13:26:37.439Z,100087.19
2023-04-25T13:29:05.143Z,100086.19
2023-04-25T13:31:32.997Z,100082.38
2023-04-25T13:34:00.547Z,100086.31
2023-04-25T13:36:28.938Z,100083.63
2023-04-25T13:38:56.461Z,100081.53
2023-04-25T13:41:24.404Z,100087.16
2023-04-25T13:43:53.073Z,100092.22
2023-04-25T13:46:40.697Z,100092.00
2023-04-25T13:49:12.778Z,100092.84
2023-04-25T13:51:41.916Z,100087.53
2023-04-25T13:54:09.771Z,100087.78
2023-04-25T13:56:37.435Z,100078.38
2023-04-25T13:59:04.974Z,100087.09
2023-04-25T14:01:35.462Z,100086.13
2023-04-25T14:04:07.224Z,100084.13
2023-04-25T14:06:36.493Z,100081.00
2023-04-25T14:09:05.599Z,100087.22
2023-04-25T14:11:33.841Z,100093.13
2023-04-25T14:14:01.439Z,100093.56
2023-04-25T14:16:29.891Z,100097.94
2023-04-25T14:18:57.600Z,100098.91
2023-04-25T14:21:26.214Z,100090.63
2023-04-25T14:23:54.170Z,100090.91
2023-04-25T14:26:22.012Z,100092.16
2023-04-25T14:28:49.642Z,100091.16
2023-04-25T14:31:17.172Z,100091.75
2023-04-25T14:33:44.896Z,100094.41
2023-04-25T14:36:12.450Z,100092.72
2023-04-25T14:38:39.991Z,100083.28
2023-04-25T14:41:07.637Z,100084.41
2023-04-25T14:43:35.226Z,100079.34
2023-04-25T14:46:03.193Z,100081.84
2023-04-25T14:48:32.303Z,100071.72
2023-04-25T14:51:01.211Z,100076.47
2023-04-25T14:53:28.878Z,100069.22
2023-04-25T14:55:56.458Z,100073.44
2023-04-25T14:58:24.164Z,100059.56
2023-04-25T15:00:52.027Z,100059.84
2023-04-25T15:03:21.120Z,100066.13
2023-04-25T15:05:48.738Z,100063.44
2023-04-25T15:08:16.338Z,100069.09
2023-04-25T15:10:46.401Z,100063.94
2023-04-25T15:13:14.163Z,100055.94
2023-04-25T15:15:42.027Z,100049.81
2023-04-25T15:18:09.661Z,100052.25
2023-04-25T15:20:37.291Z,100058.56
2023-04-25T15:23:05.996Z,100055.50
2023-04-25T15:25:33.599Z,100049.34
2023-04-25T15:28:01.115Z,100049.50
2023-04-25T15:30:28.795Z,100043.84
2023-04-25T15:32:56.420Z,100046.88
2023-04-25T15:35:23.987Z,100044.31
2023-04-25T15:37:52.330Z,100034.13
2023-04-25T15:40:20.161Z,100027.91
2023-04-25T15:42:51.975Z,100027.53
2023-04-25T15:45:22.451Z,100027.84
2023-04-25T15:47:51.617Z,100035.13
2023-04-25T15:50:19.568Z,100026.56
2023-04-25T15:52:49.027Z,100028.72
2023-04-25T15:55:17.585Z,100025.59
2023-04-25T15:57:45.114Z,100023.97
2023-04-25T16:00:15.605Z,100020.88
2023-04-25T16:02:44.635Z,100016.97
2023-04-25T16:05:14.646Z,100017.41
2023-04-25T16:07:44.853Z,100019.91
2023-04-25T16:10:13.525Z,100019.84
2023-04-25T16:12:41.288Z,100023.91
2023-04-25T16:15:09.435Z,100023.84
2023-04-25T16:17:37.913Z,100019.72
2023-04-25T16:20:10.390Z,100027.72
2023-04-25T16:22:40.409Z,100027.94
2023-04-25T16:25:08.683Z,100026.31
2023-04-25T16:27:38.926Z,100031.78
2023-04-25T16:30:08.453Z,100032.47
2023-04-25T16:32:36.570Z,100038.19
2023-04-25T16:35:04.261Z,100041.22
2023-04-25T16:37:32.100Z,100042.81
2023-04-25T16:39:59.697Z,100043.34
2023-04-25T16:42:27.341Z,100045.13
2023-04-25T16:44:54.886Z,100043.53
2023-04-25T16:47:22.694Z,100047.59
2023-04-25T16:49:50.921Z,100051.19
2023-04-25T16:52:20.727Z,100052.56
2023-04-25T16:54:48.247Z,100048.00
2023-04-25T16:57:15.869Z,100054.06
2023-04-25T16:59:43.388Z,100063.00
2023-04-25T17:02:13.281Z,100055.75
2023-04-25T17:04:41.765Z,100064.94
2023-04-25T17:07:09.733Z,100066.63
2023-04-25T17:09:37.339Z,100065.22
2023-04-25T17:12:07.387Z,100069.69
2023-04-25T17:14:36.154Z,100079.88
2023-04-25T17:17:03.882Z,100067.41
2023-04-25T17:19:32.423Z,100072.47
2023-04-25T17:22:00.227Z,100075.88
2023-04-25T17:24:27.764Z,100075.13
2023-04-25T17:26:57.228Z,100076.09
2023-04-25T17:29:24.806Z,100083.66
2023-04-25T17:31:53.583Z,100083.75
2023-04-25T17:34:22.174Z,100088.09
2023-04-25T17:36:50.125Z,100082.66
2023-04-25T17:39:17.866Z,100085.56
2023-04-25T17:41:45.583Z,100088.97
2023-04-25T17:44:13.669Z,100085.56
2023-04-25T17:46:41.594Z,100084.72
2023-04-25T17:49:09.083Z,100085.56
2023-04-25T17:51:37.687Z,100079.41
2023-04-25T17:54:05.223Z,100088.22
2023-04-25T17:56:37.895Z,100089.91
2023-04-25T17:59:05.472Z,100088.50
2023-04-25T18:01:33.196Z,100088.63
2023-04-25T18:04:01.562Z,100099.88
2023-04-25T18:06:29.425Z,100096.63
2023-04-25T18:08:59.849Z,100099.41
2023-04-25T18:11:27.828Z,100094.31
2023-04-25T18:13:56.156Z,100097.72
2023-04-25T18:16:23.772Z,100095.56
2023-04-25T18:18:53.630Z,100099.19
2023-04-25T18:21:21.859Z,100099.56
2023-04-25T18:23:49.359Z,100099.69
2023-04-25T18:26:16.821Z,100100.06
2023-04-25T18:28:44.449Z,100097.25
2023-04-25T18:31:12.146Z,100098.09
2023-04-25T18:33:39.687Z,100097.66
2023-04-25T18:36:07.492Z,100095.84
2023-04-25T18:38:49.781Z,100098.59
2023-04-25T18:41:47.910Z,100097.88
2023-04-25T18:44:05.496Z,100097.16
2023-04-25T18:46:33.641Z,100099.09
2023-04-25T18:49:01.752Z,100097.16
2023-04-25T18:51:30.467Z,100096.06
2023-04-25T18:53:59.007Z,100101.38
2023-04-25T18:56:27.554Z,100091.97
2023-04-25T18:58:56.411Z,100091.22
2023-04-25T19:01:25.625Z,100085.91
2023-04-25T19:03:57.214Z,100093.44
2023-04-25T19:06:29.045Z,100097.03
2023-04-25T19:08:57.688Z,100090.88
2023-04-25T19:11:25.309Z,100088.97
2023-04-25T19:13:55.607Z,100093.53
2023-04-25T19:16:23.854Z,100090.66
2023-04-25T19:18:54.881Z,100082.16
2023-04-25T19:21:22.841Z,100086.84
2023-04-25T19:23:53.003Z,100082.16
2023-04-25T19:26:21.091Z,100089.28
2023-04-25T19:29:07.325Z,100080.59
2023-04-25T19:31:39.784Z,100084.94
2023-04-25T19:34:09.217Z,100083.59
2023-04-25T19:36:41.533Z,100077.94
2023-04-25T19:39:09.155Z,100082.53
2023-04-25T19:41:38.883Z,100073.97
2023-04-25T19:44:08.520Z,100082.16
2023-04-25T19:46:37.535Z,100073.34
2023-04-25T19:49:08.878Z,100077.81
2023-04-25T19:51:37.397Z,100074.44
2023-04-25T19:54:05.587Z,100083.72
2023-04-25T19:56:33.890Z,100076.72
2023-04-25T19:59:01.550Z,100083.88
2023-04-25T20:01:29.476Z,100093.03
2023-04-25T20:03:57.021Z,100086.88
2023-04-25T20:06:24.842Z,100099.44
2023-04-25T20:08:55.975Z,100099.44
2023-04-25T20:11:23.911Z,100103.53
2023-04-25T20:13:51.770Z,100109.31
2023-04-25T20:16:21.223Z,100107.72
2023-04-25T20:18:49.257Z,100112.56
2023-04-25T20:21:17.140Z,100126.19
2023-04-25T20:23:45.430Z,100127.88
2023-04-25T20:26:12.975Z,100128.72
2023-04-25T20:28:41.921Z,100126.88
2023-04-25T20:31:11.021Z,100127.09
2023-04-25T20:33:38.916Z,100115.63
2023-04-25T20:36:06.519Z,100126.50
2023-04-25T20:38:34.150Z,100133.72
2023-04-25T20:41:01.774Z,100135.53
2023-04-25T20:43:30.335Z,100132.41
2023-04-25T20:45:58.851Z,100128.66
2023-04-25T20:48:27.259Z,100132.88
2023-04-25T20:50:54.895Z,100136.28
2023-04-25T20:53:22.452Z,100138.69
2023-04-25T20:55:50.103Z,100143.28
2023-04-25T20:58:17.673Z,100145.81
2023-04-25T21:00:47.512Z,100142.53
2023-04-25T21:03:16.231Z,100143.75
2023-04-25T21:05:43.935Z,100146.50
2023-04-25T21:08:11.565Z,100151.72
2023-04-25T21:10:39.412Z,100155.41
2023-04-25T21:13:07.573Z,100157.84
2023-04-25T21:15:35.273Z,100163.06
2023-04-25T21:18:02.804Z,100167.97
2023-04-25T21:20:30.577Z,100163.91
2023-04-25T21:22:59.302Z,100171.25
2023-04-25T21:25:31.410Z,100171.41
2023-04-25T21:28:00.441Z,100169.50
2023-04-25T21:30:29.078Z,100173.84
2023-04-25T21:32:56.978Z,100172.50
2023-04-25T21:35:24.924Z,100179.81
2023-04-25T21:37:52.702Z,100177.91
2023-04-25T21:40:20.884Z,100176.09
2023-04-25T21:42:53.607Z,100176.19
2023-04-25T21:45:21.412Z,100176.66
2023-04-25T21:47:50.725Z,100174.28
2023-04-25T21:50:19.540Z,100170.28
2023-04-25T21:52:48.439Z,100177.97
2023-04-25T21:55:17.030Z,100172.66
2023-04-25T21:57:44.842Z,100166.13
2023-04-25T22:00:24.870Z,100171.50
2023-04-25T22:02:53.050Z,100171.09
2023-04-25T22:05:22.488Z,100165.97
2023-04-25T22:07:51.507Z,100174.16
2023-04-25T22:10:20.932Z,100168.19
2023-04-25T22:12:51.068Z,100170.13
2023-04-25T22:15:19.541Z,100168.59
2023-04-25T22:17:57.904Z,100174.91
2023-04-25T22:21:00.119Z,100171.94
2023-04-25T22:23:33.652Z,100173.31
2023-04-25T22:26:03.003Z,100170.88
2023-04-25T22:28:33.732Z,100167.19
2023-04-25T22:31:03.239Z,100162.50
2023-04-25T22:33:33.930Z,100163.44
2023-04-25T22:36:02.741Z,100165.44
2023-04-25T22:38:31.996Z,100164.56
2023-04-25T22:41:00.691Z,100168.78
2023-04-25T22:43:29.936Z,100164.97
2023-04-25T22:45:58.983Z,100161.59
2023-04-25T22:48:26.508Z,100170.88
2023-04-25T22:51:05.268Z,100169.19
2023-04-25T22:53:34.311Z,100170.03
2023-04-25T22:56:02.044Z,100165.81
2023-04-25T22:58:30.037Z,100171.66
2023-04-25T23:00:57.597Z,100162.03
2023-04-25T23:03:25.289Z,100161.38
2023-04-25T23:05:53.072Z,100172.22
2023-04-25T23:08:20.968Z,100176.25
2023-04-25T23:10:48.631Z,100173.91
2023-04-25T23:13:16.710Z,100179.22
2023-04-25T23:15:44.159Z,100177.28
2023-04-25T23:18:11.941Z,100173.19
2023-04-25T23:20:39.993Z,100172.66
2023-04-25T23:23:07.732Z,100180.81
2023-04-25T23:25:39.944Z,100180.31
2023-04-25T23:28:07.794Z,100180.75
2023-04-25T23:30:35.509Z,100180.75
2023-04-25T23:33:04.162Z,100181.47
2023-04-25T23:35:36.201Z,100186.78
2023-04-25T23:38:03.814Z,100180.50
2023-04-25T23:40:31.981Z,100186.25
2023-04-25T23:43:01.514Z,100190.81
2023-04-25T23:45:29.351Z,100186.47
2023-04-25T23:47:57.300Z,100185.94
2023-04-25T23:50:24.837Z,100185.19
2023-04-25T23:52:52.451Z,100186.28
2023-04-25T23:55:20.048Z,100192.19
2023-04-25T23:57:48.592Z,100191.03
